createdAt,value
2019-04-04T00:00:43.399Z,956.05
2019-04-04T00:01:43.383Z,956.09
2019-04-04T00:02:43.370Z,956.09
2019-04-04T00:03:43.359Z,956.08
2019-04-04T00:04:43.342Z,956.08
2019-04-04T00:05:43.330Z,956.00
2019-04-04T00:06:43.314Z,955.95
2019-04-04T00:07:43.302Z,955.88
2019-04-04T00:08:43.290Z,955.88
2019-04-04T00:09:43.274Z,955.86
2019-04-04T00:10:43.261Z,955.78
2019-04-04T00:11:43.257Z,955.81
2019-04-04T00:12:43.234Z,955.78
2019-04-04T00:13:43.220Z,955.72
2019-04-04T00:14:43.845Z,955.73
2019-04-04T00:15:45.380Z,955.69
2019-04-04T00:16:43.181Z,955.68
2019-04-04T00:17:43.166Z,955.64
2019-04-04T00:18:43.156Z,955.69
2019-04-04T00:19:43.140Z,955.70
2019-04-04T00:20:43.127Z,955.65
2019-04-04T00:21:43.118Z,955.67
2019-04-04T00:22:43.099Z,955.66
2019-04-04T00:23:43.084Z,955.64
2019-04-04T00:24:43.067Z,955.64
2019-04-04T00:25:43.054Z,955.60
2019-04-04T00:26:43.045Z,955.62
2019-04-04T00:27:44.005Z,955.62
2019-04-04T00:28:44.106Z,955.60
2019-04-04T00:29:43.006Z,955.52
2019-04-04T00:30:42.988Z,955.49
2019-04-04T00:31:42.977Z,955.45
2019-04-04T00:32:42.962Z,955.42
2019-04-04T00:33:42.947Z,955.39
2019-04-04T00:34:42.936Z,955.37
2019-04-04T00:35:42.920Z,955.36
2019-04-04T00:36:42.907Z,955.30
2019-04-04T00:37:42.894Z,955.36
2019-04-04T00:38:42.878Z,955.36
2019-04-04T00:39:42.864Z,955.31
2019-04-04T00:40:42.854Z,955.26
2019-04-04T00:41:44.608Z,955.21
2019-04-04T00:42:42.832Z,955.12
2019-04-04T00:43:42.813Z,955.07
2019-04-04T00:44:42.798Z,955.06
2019-04-04T00:45:42.786Z,955.06
2019-04-04T00:46:42.770Z,955.02
2019-04-04T00:47:42.760Z,955.00
2019-04-04T00:48:42.743Z,954.97
2019-04-04T00:49:42.732Z,954.98
2019-04-04T00:50:42.719Z,955.01
2019-04-04T00:51:42.705Z,955.07
2019-04-04T00:52:42.691Z,955.03
2019-04-04T00:53:43.061Z,955.06
2019-04-04T00:54:43.009Z,955.02
2019-04-04T00:55:42.653Z,954.95
2019-04-04T00:56:42.636Z,954.95
2019-04-04T00:57:42.622Z,954.90
2019-04-04T00:58:42.611Z,954.83
2019-04-04T00:59:42.597Z,954.87
2019-04-04T01:00:42.654Z,954.81
2019-04-04T01:01:42.572Z,954.80
2019-04-04T01:02:42.557Z,954.77
2019-04-04T01:03:42.546Z,954.76
2019-04-04T01:04:42.531Z,954.72
2019-04-04T01:05:42.515Z,954.73
2019-04-04T01:06:42.530Z,954.69
2019-04-04T01:07:42.494Z,954.62
2019-04-04T01:08:42.477Z,954.59
2019-04-04T01:09:42.465Z,954.58
2019-04-04T01:10:42.451Z,954.56
2019-04-04T01:11:42.439Z,954.58
2019-04-04T01:12:42.425Z,954.53
2019-04-04T01:13:42.410Z,954.55
2019-04-04T01:14:42.399Z,954.60
2019-04-04T01:15:42.385Z,954.60
2019-04-04T01:16:42.372Z,954.63
2019-04-04T01:17:42.360Z,954.61
2019-04-04T01:18:42.342Z,954.64
2019-04-04T01:19:42.331Z,954.67
2019-04-04T01:20:42.317Z,954.61
2019-04-04T01:21:42.305Z,954.67
2019-04-04T01:22:42.290Z,954.64
2019-04-04T01:23:42.278Z,954.66
2019-04-04T01:24:42.260Z,954.65
2019-04-04T01:25:42.263Z,954.62
2019-04-04T01:26:42.238Z,954.57
2019-04-04T01:27:42.227Z,954.50
2019-04-04T01:28:42.208Z,954.45
2019-04-04T01:29:42.197Z,954.38
2019-04-04T01:30:43.604Z,954.36
2019-04-04T01:31:42.171Z,954.32
2019-04-04T01:32:42.157Z,954.36
2019-04-04T01:33:42.143Z,954.34
2019-04-04T01:34:42.130Z,954.33
2019-04-04T01:35:42.117Z,954.38
2019-04-04T01:36:42.102Z,954.38
2019-04-04T01:37:42.093Z,954.39
2019-04-04T01:38:42.074Z,954.39
2019-04-04T01:39:42.066Z,954.34
2019-04-04T01:40:42.048Z,954.24
2019-04-04T01:41:42.037Z,954.27
2019-04-04T01:42:42.024Z,954.18
2019-04-04T01:43:42.008Z,954.18
2019-04-04T01:44:42.199Z,954.14
2019-04-04T01:45:43.737Z,954.16
2019-04-04T01:46:41.968Z,954.16
2019-04-04T01:47:41.954Z,954.21
2019-04-04T01:48:41.942Z,954.16
2019-04-04T01:49:41.929Z,954.19
2019-04-04T01:50:41.921Z,954.10
2019-04-04T01:51:41.912Z,954.12
2019-04-04T01:52:41.887Z,954.09
2019-04-04T01:53:41.873Z,954.00
2019-04-04T01:54:41.860Z,954.00
2019-04-04T01:55:41.848Z,954.01
2019-04-04T01:56:41.833Z,954.00
2019-04-04T01:57:41.819Z,954.04
2019-04-04T01:58:42.021Z,954.01
2019-04-04T01:59:41.953Z,953.99
2019-04-04T02:00:41.781Z,953.92
2019-04-04T02:01:41.768Z,953.86
2019-04-04T02:02:41.751Z,953.88
2019-04-04T02:03:41.743Z,953.84
2019-04-04T02:04:41.725Z,953.81
2019-04-04T02:05:41.713Z,953.82
2019-04-04T02:06:41.699Z,953.77
2019-04-04T02:07:41.686Z,953.74
2019-04-04T02:08:41.672Z,953.65
2019-04-04T02:09:43.412Z,953.62
2019-04-04T02:10:41.645Z,953.62
2019-04-04T02:11:41.630Z,953.50
2019-04-04T02:12:41.615Z,953.47
2019-04-04T02:13:41.602Z,953.34
2019-04-04T02:14:43.033Z,953.29
2019-04-04T02:15:42.823Z,953.24
2019-04-04T02:16:41.562Z,953.29
2019-04-04T02:17:41.552Z,953.33
2019-04-04T02:18:41.537Z,953.28
2019-04-04T02:19:41.522Z,953.33
2019-04-04T02:20:41.507Z,953.30
2019-04-04T02:21:41.495Z,953.33
2019-04-04T02:22:41.483Z,953.32
2019-04-04T02:23:41.469Z,953.30
2019-04-04T02:24:41.457Z,953.26
2019-04-04T02:25:41.444Z,953.23
2019-04-04T02:26:41.427Z,953.23
2019-04-04T02:27:41.417Z,953.25
2019-04-04T02:28:41.403Z,953.30
2019-04-04T02:29:41.945Z,953.30
2019-04-04T02:30:41.373Z,953.31
2019-04-04T02:31:41.362Z,953.22
2019-04-04T02:32:41.347Z,953.20
2019-04-04T02:33:41.336Z,953.19
2019-04-04T02:34:41.320Z,953.15
2019-04-04T02:35:43.732Z,953.12
2019-04-04T02:36:41.291Z,953.03
2019-04-04T02:37:41.278Z,953.00
2019-04-04T02:38:41.274Z,952.91
2019-04-04T02:39:41.253Z,952.87
2019-04-04T02:40:42.293Z,952.89
2019-04-04T02:41:41.229Z,952.86
2019-04-04T02:42:41.209Z,952.81
2019-04-04T02:43:41.205Z,952.75
2019-04-04T02:44:41.208Z,952.76
2019-04-04T02:45:41.177Z,952.72
2019-04-04T02:46:44.248Z,952.73
2019-04-04T02:47:41.170Z,952.79
2019-04-04T02:48:41.133Z,952.83
2019-04-04T02:49:41.123Z,952.82
2019-04-04T02:50:41.103Z,952.79
2019-04-04T02:51:41.561Z,952.80
2019-04-04T02:52:41.109Z,952.79
2019-04-04T02:53:41.069Z,952.81
2019-04-04T02:54:41.052Z,952.79
2019-04-04T02:55:41.038Z,952.83
2019-04-04T02:56:41.024Z,952.80
2019-04-04T02:57:42.438Z,952.79
2019-04-04T02:58:40.995Z,952.77
2019-04-04T02:59:40.989Z,952.76
2019-04-04T03:00:40.969Z,952.77
2019-04-04T03:01:40.958Z,952.74
2019-04-04T03:02:40.943Z,952.74
2019-04-04T03:03:42.007Z,952.74
2019-04-04T03:04:40.925Z,952.74
2019-04-04T03:05:40.901Z,952.75
2019-04-04T03:06:40.890Z,952.75
2019-04-04T03:07:40.879Z,952.77
2019-04-04T03:08:40.869Z,952.78
2019-04-04T03:09:43.367Z,952.77
2019-04-04T03:10:40.838Z,952.77
2019-04-04T03:11:40.823Z,952.75
2019-04-04T03:12:40.809Z,952.71
2019-04-04T03:13:40.795Z,952.74
2019-04-04T03:14:40.827Z,952.75
2019-04-04T03:15:41.819Z,952.71
2019-04-04T03:16:40.762Z,952.72
2019-04-04T03:17:40.850Z,952.66
2019-04-04T03:18:40.729Z,952.68
2019-04-04T03:19:43.487Z,952.62
2019-04-04T03:20:40.703Z,952.64
2019-04-04T03:21:40.688Z,952.65
2019-04-04T03:22:40.678Z,952.61
2019-04-04T03:23:40.662Z,952.66
2019-04-04T03:24:44.809Z,952.71
2019-04-04T03:25:40.634Z,952.70
2019-04-04T03:26:40.620Z,952.69
2019-04-04T03:27:40.608Z,952.72
2019-04-04T03:28:40.594Z,952.73
2019-04-04T03:29:40.582Z,952.72
2019-04-04T03:30:40.573Z,952.75
2019-04-04T03:31:40.566Z,952.69
2019-04-04T03:32:40.542Z,952.69
2019-04-04T03:33:40.533Z,952.67
2019-04-04T03:34:47.741Z,952.70
2019-04-04T03:35:40.501Z,952.66
2019-04-04T03:36:40.490Z,952.70
2019-04-04T03:37:41.773Z,952.65
2019-04-04T03:38:40.460Z,952.67
2019-04-04T03:39:40.443Z,952.65
2019-04-04T03:40:41.969Z,952.65
2019-04-04T03:41:40.431Z,952.64
2019-04-04T03:42:43.928Z,952.56
2019-04-04T03:43:40.391Z,952.59
2019-04-04T03:44:40.377Z,952.54
2019-04-04T03:45:40.362Z,952.55
2019-04-04T03:46:40.354Z,952.57
2019-04-04T03:47:43.273Z,952.53
2019-04-04T03:48:40.324Z,952.51
2019-04-04T03:49:40.314Z,952.50
2019-04-04T03:50:40.296Z,952.50
2019-04-04T03:51:40.282Z,952.43
2019-04-04T03:52:43.266Z,952.39
2019-04-04T03:53:40.256Z,952.39
2019-04-04T03:54:40.246Z,952.39
2019-04-04T03:55:40.231Z,952.40
2019-04-04T03:56:40.214Z,952.36
2019-04-04T03:57:40.221Z,952.42
2019-04-04T03:58:40.192Z,952.42
2019-04-04T03:59:40.175Z,952.44
2019-04-04T04:00:40.661Z,952.42
2019-04-04T04:01:40.149Z,952.35
2019-04-04T04:02:40.140Z,952.31
2019-04-04T04:03:40.123Z,952.34
2019-04-04T04:04:40.113Z,952.31
2019-04-04T04:05:40.867Z,952.29
2019-04-04T04:06:41.893Z,952.33
2019-04-04T04:07:40.069Z,952.30
2019-04-04T04:08:40.060Z,952.35
2019-04-04T04:09:40.040Z,952.35
2019-04-04T04:10:40.028Z,952.35
2019-04-04T04:11:40.013Z,952.36
2019-04-04T04:12:42.703Z,952.36
2019-04-04T04:13:39.984Z,952.39
2019-04-04T04:14:39.971Z,952.35
2019-04-04T04:15:39.956Z,952.37
2019-04-04T04:16:39.941Z,952.40
2019-04-04T04:17:39.930Z,952.38
2019-04-04T04:18:39.916Z,952.39
2019-04-04T04:19:39.902Z,952.42
2019-04-04T04:20:39.886Z,952.43
2019-04-04T04:21:42.675Z,952.42
2019-04-04T04:22:39.867Z,952.43
2019-04-04T04:23:39.865Z,952.47
2019-04-04T04:24:39.840Z,952.46
2019-04-04T04:25:39.821Z,952.48
2019-04-04T04:26:41.868Z,952.50
2019-04-04T04:27:39.793Z,952.52
2019-04-04T04:28:39.781Z,952.53
2019-04-04T04:29:39.766Z,952.52
2019-04-04T04:30:40.827Z,952.57
2019-04-04T04:31:39.744Z,952.49
2019-04-04T04:32:39.729Z,952.49
2019-04-04T04:33:39.708Z,952.50
2019-04-04T04:34:39.709Z,952.48
2019-04-04T04:35:41.978Z,952.52
2019-04-04T04:36:39.667Z,952.56
2019-04-04T04:37:39.656Z,952.58
2019-04-04T04:38:39.642Z,952.66
2019-04-04T04:39:41.447Z,952.73
2019-04-04T04:40:39.617Z,952.75
2019-04-04T04:41:39.602Z,952.78
2019-04-04T04:42:39.585Z,952.76
2019-04-04T04:43:39.576Z,952.77
2019-04-04T04:44:39.559Z,952.74
2019-04-04T04:45:41.678Z,952.70
2019-04-04T04:46:39.531Z,952.69
2019-04-04T04:47:39.521Z,952.72
2019-04-04T04:48:39.504Z,952.62
2019-04-04T04:49:39.492Z,952.64
2019-04-04T04:50:40.471Z,952.74
2019-04-04T04:51:43.249Z,952.80
2019-04-04T04:52:39.456Z,952.77
2019-04-04T04:53:39.439Z,952.81
2019-04-04T04:54:39.423Z,952.77
2019-04-04T04:55:39.416Z,952.83
2019-04-04T04:56:39.394Z,952.83
2019-04-04T04:57:39.389Z,952.85
2019-04-04T04:58:41.707Z,952.89
2019-04-04T04:59:39.352Z,952.86
2019-04-04T05:00:39.338Z,952.85
2019-04-04T05:01:40.638Z,952.85
2019-04-04T05:02:39.312Z,952.86
2019-04-04T05:03:39.301Z,952.87
2019-04-04T05:04:39.289Z,952.88
2019-04-04T05:05:39.287Z,952.85
2019-04-04T05:06:39.253Z,952.84
2019-04-04T05:07:39.255Z,952.90
2019-04-04T05:08:41.034Z,952.94
2019-04-04T05:09:39.214Z,952.90
2019-04-04T05:10:39.203Z,952.88
2019-04-04T05:11:39.257Z,952.88
2019-04-04T05:12:39.171Z,952.93
2019-04-04T05:13:39.156Z,952.93
2019-04-04T05:14:39.144Z,952.94
2019-04-04T05:15:39.131Z,952.94
2019-04-04T05:16:39.118Z,952.92
2019-04-04T05:17:40.038Z,952.98
2019-04-04T05:18:39.089Z,952.97
2019-04-04T05:19:39.072Z,952.97
2019-04-04T05:20:39.057Z,952.96
2019-04-04T05:21:39.046Z,952.92
2019-04-04T05:22:40.044Z,952.94
2019-04-04T05:23:39.014Z,952.94
2019-04-04T05:24:39.011Z,952.92
2019-04-04T05:25:50.613Z,952.98
2019-04-04T05:26:39.011Z,952.95
2019-04-04T05:27:38.960Z,953.00
2019-04-04T05:28:41.825Z,952.93
2019-04-04T05:29:38.948Z,952.93
2019-04-04T05:30:38.933Z,952.98
2019-04-04T05:31:38.935Z,953.03
2019-04-04T05:32:38.894Z,952.98
2019-04-04T05:33:38.873Z,953.03
2019-04-04T05:34:38.858Z,953.01
2019-04-04T05:35:38.840Z,953.02
2019-04-04T05:36:38.830Z,953.06
2019-04-04T05:37:39.004Z,953.07
2019-04-04T05:38:38.802Z,953.07
2019-04-04T05:39:38.787Z,953.08
2019-04-04T05:40:38.771Z,953.10
2019-04-04T05:41:38.794Z,953.12
2019-04-04T05:42:38.739Z,953.11
2019-04-04T05:43:38.730Z,953.13
2019-04-04T05:44:41.227Z,953.14
2019-04-04T05:45:38.706Z,953.13
2019-04-04T05:46:38.684Z,953.13
2019-04-04T05:47:38.668Z,953.17
2019-04-04T05:48:38.652Z,953.15
2019-04-04T05:49:38.884Z,953.17
2019-04-04T05:50:38.624Z,953.22
2019-04-04T05:51:38.634Z,953.20
2019-04-04T05:52:38.597Z,953.22
2019-04-04T05:53:38.584Z,953.26
2019-04-04T05:54:39.206Z,953.25
2019-04-04T05:55:39.815Z,953.25
2019-04-04T05:56:38.533Z,953.28
2019-04-04T05:57:38.527Z,953.31
2019-04-04T05:58:38.505Z,953.32
2019-04-04T05:59:38.491Z,953.33
2019-04-04T06:00:38.478Z,953.35
2019-04-04T06:01:38.460Z,953.32
2019-04-04T06:02:38.445Z,953.33
2019-04-04T06:03:38.432Z,953.34
2019-04-04T06:04:38.417Z,953.36
2019-04-04T06:05:38.404Z,953.45
2019-04-04T06:06:38.405Z,953.44
2019-04-04T06:07:38.377Z,953.45
2019-04-04T06:08:42.422Z,953.37
2019-04-04T06:09:38.347Z,953.39
2019-04-04T06:10:38.329Z,953.38
2019-04-04T06:11:38.313Z,953.39
2019-04-04T06:12:38.303Z,953.36
2019-04-04T06:13:38.283Z,953.36
2019-04-04T06:14:38.270Z,953.35
2019-04-04T06:15:38.256Z,953.36
2019-04-04T06:16:38.237Z,953.42
2019-04-04T06:17:39.168Z,953.38
2019-04-04T06:18:38.210Z,953.45
2019-04-04T06:19:38.192Z,953.46
2019-04-04T06:20:38.179Z,953.44
2019-04-04T06:21:38.163Z,953.42
2019-04-04T06:22:38.147Z,953.46
2019-04-04T06:23:38.130Z,953.43
2019-04-04T06:24:38.129Z,953.41
2019-04-04T06:25:38.102Z,953.37
2019-04-04T06:26:38.754Z,953.42
2019-04-04T06:27:40.172Z,953.43
2019-04-04T06:28:38.052Z,953.40
2019-04-04T06:29:38.041Z,953.41
2019-04-04T06:30:43.415Z,953.42
2019-04-04T06:31:38.013Z,953.37
2019-04-04T06:32:39.045Z,953.37
2019-04-04T06:33:37.979Z,953.43
2019-04-04T06:34:37.963Z,953.48
2019-04-04T06:35:39.779Z,953.48
2019-04-04T06:36:37.933Z,953.50
2019-04-04T06:37:38.810Z,953.54
2019-04-04T06:38:37.902Z,953.54
2019-04-04T06:39:37.890Z,953.57
2019-04-04T06:40:37.869Z,953.60
2019-04-04T06:41:37.861Z,953.61
2019-04-04T06:42:37.849Z,953.57
2019-04-04T06:43:37.831Z,953.56
2019-04-04T06:44:37.808Z,953.54
2019-04-04T06:45:37.797Z,953.48
2019-04-04T06:46:37.782Z,953.41
2019-04-04T06:47:37.769Z,953.38
2019-04-04T06:48:37.750Z,953.24
2019-04-04T06:49:37.734Z,953.16
2019-04-04T06:50:40.011Z,953.05
2019-04-04T06:51:37.707Z,952.95
2019-04-04T06:52:37.690Z,952.93
2019-04-04T06:53:37.676Z,952.99
2019-04-04T06:54:37.662Z,952.98
2019-04-04T06:55:40.083Z,952.95
2019-04-04T06:56:37.630Z,952.94
2019-04-04T06:57:37.757Z,952.91
2019-04-04T06:58:40.016Z,952.81
2019-04-04T06:59:37.843Z,952.70
2019-04-04T07:00:37.579Z,952.71
2019-04-04T07:01:37.558Z,952.71
2019-04-04T07:02:37.543Z,952.74
2019-04-04T07:03:37.527Z,952.73
2019-04-04T07:04:37.512Z,952.75
2019-04-04T07:05:38.834Z,952.78
2019-04-04T07:06:37.487Z,952.79
2019-04-04T07:07:37.468Z,952.85
2019-04-04T07:08:37.453Z,952.89
2019-04-04T07:09:37.439Z,952.95
2019-04-04T07:10:37.423Z,953.01
2019-04-04T07:11:37.412Z,953.04
2019-04-04T07:12:38.043Z,953.09
2019-04-04T07:13:42.585Z,953.08
2019-04-04T07:14:45.579Z,953.13
2019-04-04T07:15:46.614Z,953.15
2019-04-04T07:16:37.355Z,953.24
2019-04-04T07:17:40.058Z,953.25
2019-04-04T07:18:37.311Z,953.27
2019-04-04T07:19:37.293Z,953.30
2019-04-04T07:20:37.278Z,953.30
2019-04-04T07:21:37.264Z,953.29
2019-04-04T07:22:37.306Z,953.31
2019-04-04T07:23:37.233Z,953.34
2019-04-04T07:24:37.219Z,953.41
2019-04-04T07:25:38.078Z,953.36
2019-04-04T07:26:37.193Z,953.42
2019-04-04T07:27:37.177Z,953.38
2019-04-04T07:28:37.159Z,953.45
2019-04-04T07:29:37.144Z,953.46
2019-04-04T07:30:37.130Z,953.45
2019-04-04T07:31:38.392Z,953.46
2019-04-04T07:32:38.848Z,953.51
2019-04-04T07:33:37.083Z,953.52
2019-04-04T07:34:37.070Z,953.59
2019-04-04T07:35:37.059Z,953.63
2019-04-04T07:36:37.041Z,953.65
2019-04-04T07:37:37.036Z,953.63
2019-04-04T07:38:37.081Z,953.64
2019-04-04T07:39:37.001Z,953.70
2019-04-04T07:40:37.360Z,953.68
2019-04-04T07:41:40.067Z,953.72
2019-04-04T07:42:39.947Z,953.66
2019-04-04T07:43:39.319Z,953.65
2019-04-04T07:44:36.924Z,953.57
2019-04-04T07:45:36.912Z,953.48
2019-04-04T07:46:36.904Z,953.40
2019-04-04T07:47:36.885Z,953.33
2019-04-04T07:48:36.869Z,953.34
2019-04-04T07:49:36.851Z,953.34
2019-04-04T07:50:36.836Z,953.36
2019-04-04T07:51:36.820Z,953.41
2019-04-04T07:52:36.806Z,953.37
2019-04-04T07:53:37.134Z,953.31
2019-04-04T07:54:38.531Z,953.24
2019-04-04T07:55:36.768Z,953.23
2019-04-04T07:56:36.755Z,953.18
2019-04-04T07:57:36.734Z,953.20
2019-04-04T07:58:36.721Z,953.17
2019-04-04T07:59:36.714Z,953.11
2019-04-04T08:00:36.695Z,953.06
2019-04-04T08:01:36.679Z,953.00
2019-04-04T08:02:36.666Z,952.94
2019-04-04T08:03:36.653Z,952.95
2019-04-04T08:04:36.635Z,952.96
2019-04-04T08:05:36.621Z,952.96
2019-04-04T08:06:36.605Z,952.95
2019-04-04T08:07:36.607Z,952.87
2019-04-04T08:08:36.576Z,952.79
2019-04-04T08:09:36.563Z,952.74
2019-04-04T08:10:36.548Z,952.72
2019-04-04T08:11:36.536Z,952.78
2019-04-04T08:12:36.520Z,952.79
2019-04-04T08:13:36.506Z,952.82
2019-04-04T08:14:36.491Z,952.90
2019-04-04T08:15:36.477Z,952.98
2019-04-04T08:16:36.461Z,953.14
2019-04-04T08:17:36.453Z,953.28
2019-04-04T08:18:36.437Z,953.37
2019-04-04T08:19:36.422Z,953.47
2019-04-04T08:20:36.408Z,953.54
2019-04-04T08:21:36.395Z,953.57
2019-04-04T08:22:39.526Z,953.58
2019-04-04T08:23:36.367Z,953.66
2019-04-04T08:24:36.350Z,953.66
2019-04-04T08:25:36.343Z,953.76
2019-04-04T08:26:36.320Z,953.77
2019-04-04T08:27:36.306Z,953.75
2019-04-04T08:28:36.359Z,953.74
2019-04-04T08:29:36.280Z,953.75
2019-04-04T08:30:36.267Z,953.81
2019-04-04T08:31:36.249Z,953.90
2019-04-04T08:32:36.239Z,953.96
2019-04-04T08:33:36.223Z,953.94
2019-04-04T08:34:36.594Z,953.97
2019-04-04T08:35:36.194Z,953.97
2019-04-04T08:36:36.181Z,953.96
2019-04-04T08:37:36.165Z,953.99
2019-04-04T08:38:36.150Z,954.02
2019-04-04T08:39:36.137Z,954.01
2019-04-04T08:40:36.124Z,954.05
2019-04-04T08:41:36.113Z,954.17
2019-04-04T08:42:36.092Z,954.19
2019-04-04T08:43:36.080Z,954.15
2019-04-04T08:44:36.063Z,954.09
2019-04-04T08:45:36.052Z,954.11
2019-04-04T08:46:36.036Z,954.19
2019-04-04T08:47:36.028Z,954.17
2019-04-04T08:48:36.007Z,954.23
2019-04-04T08:49:35.993Z,954.25
2019-04-04T08:50:35.979Z,954.26
2019-04-04T08:51:35.967Z,954.34
2019-04-04T08:52:35.954Z,954.33
2019-04-04T08:53:40.140Z,954.31
2019-04-04T08:54:35.920Z,954.37
2019-04-04T08:55:35.903Z,954.37
2019-04-04T08:56:35.888Z,954.40
2019-04-04T08:57:35.877Z,954.44
2019-04-04T08:58:35.859Z,954.44
2019-04-04T08:59:35.854Z,954.43
2019-04-04T09:00:35.833Z,954.44
2019-04-04T09:01:35.816Z,954.53
2019-04-04T09:02:35.803Z,954.50
2019-04-04T09:03:35.791Z,954.58
2019-04-04T09:04:35.780Z,954.58
2019-04-04T09:05:35.760Z,954.60
2019-04-04T09:06:35.745Z,954.60
2019-04-04T09:07:35.729Z,954.58
2019-04-04T09:08:35.717Z,954.62
2019-04-04T09:09:35.859Z,954.63
2019-04-04T09:10:35.692Z,954.71
2019-04-04T09:11:35.691Z,954.69
2019-04-04T09:12:35.659Z,954.70
2019-04-04T09:13:35.646Z,954.69
2019-04-04T09:14:35.631Z,954.70
2019-04-04T09:15:35.614Z,954.71
2019-04-04T09:16:35.598Z,954.74
2019-04-04T09:17:35.589Z,954.75
2019-04-04T09:18:35.574Z,954.76
2019-04-04T09:19:35.559Z,954.73
2019-04-04T09:20:35.546Z,954.73
2019-04-04T09:21:35.532Z,954.74
2019-04-04T09:22:35.518Z,954.70
2019-04-04T09:23:35.502Z,954.68
2019-04-04T09:24:36.133Z,954.68
2019-04-04T09:25:35.487Z,954.67
2019-04-04T09:26:35.458Z,954.66
2019-04-04T09:27:35.444Z,954.63
2019-04-04T09:28:35.436Z,954.67
2019-04-04T09:29:35.414Z,954.73
2019-04-04T09:30:35.401Z,954.76
2019-04-04T09:31:35.385Z,954.80
2019-04-04T09:32:35.371Z,954.83
2019-04-04T09:33:35.354Z,954.89
2019-04-04T09:34:35.342Z,954.91
2019-04-04T09:35:35.329Z,954.84
2019-04-04T09:36:35.319Z,954.79
2019-04-04T09:37:35.301Z,954.65
2019-04-04T09:38:35.283Z,954.61
2019-04-04T09:39:35.464Z,954.56
2019-04-04T09:40:35.256Z,954.51
2019-04-04T09:41:35.243Z,954.47
2019-04-04T09:42:35.228Z,954.45
2019-04-04T09:43:35.213Z,954.52
2019-04-04T09:44:35.198Z,954.53
2019-04-04T09:45:35.190Z,954.49
2019-04-04T09:46:35.173Z,954.47
2019-04-04T09:47:35.157Z,954.46
2019-04-04T09:48:35.142Z,954.43
2019-04-04T09:49:35.128Z,954.43
2019-04-04T09:50:35.114Z,954.51
2019-04-04T09:51:35.103Z,954.54
2019-04-04T09:52:35.085Z,954.57
2019-04-04T09:53:35.070Z,954.66
2019-04-04T09:54:35.060Z,954.68
2019-04-04T09:55:35.041Z,954.71
2019-04-04T09:56:35.029Z,954.66
2019-04-04T09:57:35.014Z,954.68
2019-04-04T09:58:35.000Z,954.65
2019-04-04T09:59:34.987Z,954.64
2019-04-04T10:00:34.972Z,954.62
2019-04-04T10:01:34.956Z,954.61
2019-04-04T10:02:34.948Z,954.56
2019-04-04T10:03:34.928Z,954.53
2019-04-04T10:04:34.913Z,954.48
2019-04-04T10:05:34.903Z,954.51
2019-04-04T10:06:34.890Z,954.53
2019-04-04T10:07:34.874Z,954.58
2019-04-04T10:08:34.859Z,954.59
2019-04-04T10:09:34.846Z,954.69
2019-04-04T10:10:34.831Z,954.76
2019-04-04T10:11:34.822Z,954.77
2019-04-04T10:12:34.803Z,954.77
2019-04-04T10:13:34.788Z,954.77
2019-04-04T10:14:34.772Z,954.77
2019-04-04T10:15:34.781Z,954.75
2019-04-04T10:16:34.744Z,954.79
2019-04-04T10:17:34.729Z,954.73
2019-04-04T10:18:34.715Z,954.76
2019-04-04T10:19:34.754Z,954.80
2019-04-04T10:20:34.687Z,954.90
2019-04-04T10:21:34.673Z,954.93
2019-04-04T10:22:34.660Z,954.94
2019-04-04T10:23:34.644Z,954.97
2019-04-04T10:24:34.630Z,954.99
2019-04-04T10:25:34.618Z,955.02
2019-04-04T10:26:34.602Z,955.06
2019-04-04T10:27:34.592Z,955.17
2019-04-04T10:28:34.573Z,955.21
2019-04-04T10:29:34.560Z,955.25
2019-04-04T10:30:34.546Z,955.33
2019-04-04T10:31:34.533Z,955.35
2019-04-04T10:32:34.516Z,955.37
2019-04-04T10:33:34.502Z,955.41
2019-04-04T10:34:34.489Z,955.49
2019-04-04T10:35:34.477Z,955.52
2019-04-04T10:36:34.456Z,955.54
2019-04-04T10:37:34.443Z,955.52
2019-04-04T10:38:34.428Z,955.47
2019-04-04T10:39:34.417Z,955.41
2019-04-04T10:40:34.398Z,955.41
2019-04-04T10:41:34.392Z,955.45
2019-04-04T10:42:34.374Z,955.53
2019-04-04T10:43:34.356Z,955.63
2019-04-04T10:44:36.872Z,955.66
2019-04-04T10:45:34.329Z,955.72
2019-04-04T10:46:34.313Z,955.72
2019-04-04T10:47:34.303Z,955.77
2019-04-04T10:48:34.286Z,955.84
2019-04-04T10:49:34.272Z,955.83
2019-04-04T10:50:34.258Z,955.86
2019-04-04T10:51:34.245Z,955.83
2019-04-04T10:52:34.229Z,955.78
2019-04-04T10:53:34.218Z,955.79
2019-04-04T10:54:34.266Z,955.78
2019-04-04T10:55:34.188Z,955.88
2019-04-04T10:56:34.172Z,955.90
2019-04-04T10:57:34.158Z,955.92
2019-04-04T10:58:34.143Z,955.95
2019-04-04T10:59:34.128Z,956.06
2019-04-04T11:00:34.120Z,956.15
2019-04-04T11:01:34.102Z,956.25
2019-04-04T11:02:34.086Z,956.26
2019-04-04T11:03:34.072Z,956.30
2019-04-04T11:04:34.056Z,956.21
2019-04-04T11:05:35.479Z,956.16
2019-04-04T11:06:34.030Z,956.11
2019-04-04T11:07:34.015Z,956.09
2019-04-04T11:08:34.004Z,956.13
2019-04-04T11:09:41.926Z,956.16
2019-04-04T11:10:33.971Z,956.14
2019-04-04T11:11:33.959Z,956.03
2019-04-04T11:12:34.327Z,955.99
2019-04-04T11:13:34.166Z,955.99
2019-04-04T11:14:33.914Z,956.07
2019-04-04T11:15:33.902Z,956.15
2019-04-04T11:16:33.883Z,956.19
2019-04-04T11:17:33.869Z,956.25
2019-04-04T11:18:33.857Z,956.23
2019-04-04T11:19:33.845Z,956.24
2019-04-04T11:20:33.825Z,956.30
2019-04-04T11:21:33.813Z,956.42
2019-04-04T11:22:33.799Z,956.50
2019-04-04T11:23:33.787Z,956.52
2019-04-04T11:24:33.771Z,956.51
2019-04-04T11:25:33.757Z,956.43
2019-04-04T11:26:33.740Z,956.30
2019-04-04T11:27:33.730Z,956.18
2019-04-04T11:28:33.711Z,956.06
2019-04-04T11:29:33.701Z,956.00
2019-04-04T11:30:33.685Z,955.92
2019-04-04T11:31:33.669Z,955.90
2019-04-04T11:32:33.652Z,955.95
2019-04-04T11:33:33.640Z,955.95
2019-04-04T11:34:33.628Z,955.96
2019-04-04T11:35:33.614Z,955.93
2019-04-04T11:36:33.598Z,955.91
2019-04-04T11:37:33.584Z,955.95
2019-04-04T11:38:33.567Z,955.95
2019-04-04T11:39:33.555Z,955.95
2019-04-04T11:40:33.540Z,955.97
2019-04-04T11:41:33.524Z,955.96
2019-04-04T11:42:33.512Z,955.96
2019-04-04T11:43:33.498Z,955.93
2019-04-04T11:44:33.484Z,955.90
2019-04-04T11:45:33.467Z,955.93
2019-04-04T11:46:33.450Z,955.94
2019-04-04T11:47:33.442Z,955.98
2019-04-04T11:48:33.424Z,956.00
2019-04-04T11:49:33.419Z,956.08
2019-04-04T11:50:33.398Z,956.09
2019-04-04T11:51:33.382Z,956.12
2019-04-04T11:52:33.372Z,956.10
2019-04-04T11:53:33.352Z,956.11
2019-04-04T11:54:33.339Z,956.12
2019-04-04T11:55:33.325Z,956.12
2019-04-04T11:56:33.311Z,956.14
2019-04-04T11:57:33.298Z,956.11
2019-04-04T11:58:33.284Z,956.15
2019-04-04T11:59:33.268Z,956.16
2019-04-04T12:00:33.257Z,956.18
2019-04-04T12:01:33.241Z,956.20
2019-04-04T12:02:33.228Z,956.24
2019-04-04T12:03:33.212Z,956.26
2019-04-04T12:04:33.197Z,956.33
2019-04-04T12:05:33.182Z,956.34
2019-04-04T12:06:33.168Z,956.34
2019-04-04T12:07:33.156Z,956.37
2019-04-04T12:08:33.144Z,956.34
2019-04-04T12:09:33.125Z,956.35
2019-04-04T12:10:33.110Z,956.33
2019-04-04T12:11:33.098Z,956.29
2019-04-04T12:12:33.083Z,956.35
2019-04-04T12:13:33.068Z,956.33
2019-04-04T12:14:33.064Z,956.42
2019-04-04T12:15:33.042Z,956.43
2019-04-04T12:16:33.046Z,956.47
2019-04-04T12:17:33.009Z,956.40
2019-04-04T12:18:32.998Z,956.37
2019-04-04T12:19:32.998Z,956.35
2019-04-04T12:20:32.968Z,956.33
2019-04-04T12:21:32.954Z,956.39
2019-04-04T12:22:32.939Z,956.44
2019-04-04T12:23:32.926Z,956.50
2019-04-04T12:24:32.907Z,956.59
2019-04-04T12:25:32.895Z,956.64
2019-04-04T12:26:32.881Z,956.61
2019-04-04T12:27:32.865Z,956.62
2019-04-04T12:28:32.851Z,956.62